aviador You're here:

KGAG Decoded Metar

GAGE in OK, USA
Report Time2017-04-25 19:53:00
UTC Time2017-04-25 20:12:15
Flight Rules vfr VFR
Wind350° at 13 kt
W.Decomp.*RWY 35: 12.9 kt HW 1.8 kt LCW
W.Rank350° ranks 13
Current wind is above 350° avg. (11.1)
Visibility9999 m
Phenomena:N/A
Clouds:Few 080 Hf
Overcast 110 Hf
Expected CloudBase > 2,400 ft AGL from Temp-Dew spread
Ceiling11,000 ft
Temp17°C (ISA +6)
Dew Point11°C (68% RH)
AAT12.7°C
QNH999 hPa
Density Alt3,596 ft
Elevation2,192 ft
Report Wrong Elevation
Raw Report
KGAG 251953Z AUTO 35013KT 10SM FEW080 OVC110 17/11 A2949=

Extra information for KGAG:More info

Metar Taf Metar & Taf Last 4 Metars F.Rules Stats Wind Profile Meteogram Temp Stats Airport Information Weather charts Add Link Nearby VenuesMetar ALERT Operation Metar Decoded Social comments

AIRNAV info for KGAG